Time;durP1;ratioP1;P1;durP2;ratioP2;P2;SDS_P1;SDS_P2;PMS_P1;PMS_P2;Temp;Humidity;BMP_temperature;BMP_pressure;BME280_temperature;BME280_humidity;BME280_pressure;Samples;Min_cycle;Max_cycle;Signal;HPM_P1;HPM_P2
2023/06/20 00:00:38;;;;;;;5.50;1.80;;;15.90;67.80;;;;;;5071068;28;20201;-70
2023/06/20 00:03:06;;;;;;;3.10;1.70;;;15.90;68.40;;;;;;5071055;28;20176;-68
2023/06/20 00:05:33;;;;;;;5.87;1.50;;;16.10;66.40;;;;;;5070917;28;20212;-69
2023/06/20 00:08:01;;;;;;;1.20;1.10;;;15.80;66.60;;;;;;5071212;28;20180;-68
2023/06/20 00:10:29;;;;;;;4.73;1.20;;;15.80;63.80;;;;;;5070795;28;20188;-69
2023/06/20 00:12:56;;;;;;;4.23;1.10;;;16.40;64.10;;;;;;5071003;28;20216;-69
2023/06/20 00:15:25;;;;;;;1.73;1.13;;;16.90;61.10;;;;;;5070618;28;20234;-69
2023/06/20 00:17:54;;;;;;;1.57;0.87;;;17.20;57.00;;;;;;5070602;28;20190;-68
2023/06/20 00:20:22;;;;;;;5.67;0.90;;;17.30;56.00;;;;;;5060222;28;20185;-69
2023/06/20 00:22:50;;;;;;;4.83;0.90;;;16.60;56.10;;;;;;5071271;28;20193;-67
2023/06/20 00:25:18;;;;;;;3.83;1.00;;;16.60;57.00;;;;;;5070690;28;20304;-70
2023/06/20 00:27:46;;;;;;;5.83;1.10;;;16.90;56.30;;;;;;5075301;28;20187;-68
2023/06/20 00:30:15;;;;;;;2.60;0.60;;;17.10;54.50;;;;;;5074580;28;20206;-67
2023/06/20 00:32:43;;;;;;;4.20;0.70;;;17.20;53.00;;;;;;5074996;28;20899;-68
2023/06/20 00:35:11;;;;;;;1.87;0.87;;;17.60;51.40;;;;;;5075210;28;20270;-68
2023/06/20 00:37:38;;;;;;;1.30;0.80;;;17.90;50.30;;;;;;5075146;28;20198;-68
2023/06/20 00:40:08;;;;;;;2.77;0.60;;;18.20;49.20;;;;;;5074755;28;20186;-68
2023/06/20 00:42:36;;;;;;;1.13;0.90;;;18.60;43.60;;;;;;5074990;28;20172;-68
2023/06/20 00:48:29;;;;;;;3.03;0.80;;;18.60;37.70;;;;;;5073822;28;20680;-69
2023/06/20 00:50:58;;;;;;;1.20;0.83;;;18.10;33.40;;;;;;5074989;28;20191;-67
2023/06/20 00:53:26;;;;;;;0.80;0.80;;;17.60;33.50;;;;;;5074884;28;20183;-68
2023/06/20 00:55:55;;;;;;;2.43;0.80;;;18.20;35.90;;;;;;5074205;28;20182;-67
2023/06/20 00:58:23;;;;;;;4.37;1.23;;;18.70;33.70;;;;;;5075580;28;20207;-68
2023/06/20 01:00:51;;;;;;;3.70;0.90;;;18.70;31.50;;;;;;5076032;28;20665;-68
2023/06/20 01:03:18;;;;;;;1.63;0.90;;;19.10;29.30;;;;;;5076372;28;20648;-69
2023/06/20 01:06:09;;;;;;;1.13;0.80;;;19.10;27.30;;;;;;5076083;28;20218;-68
2023/06/20 01:08:49;;;;;;;4.00;0.70;;;18.70;25.90;;;;;;5075013;28;20186;-68
2023/06/20 01:11:33;;;;;;;0.70;0.70;;;18.90;24.90;;;;;;5075121;28;20179;-66
2023/06/20 01:14:00;;;;;;;0.90;0.60;;;19.00;23.90;;;;;;5075836;28;20182;-68
2023/06/20 01:16:43;;;;;;;1.40;0.47;;;18.50;23.80;;;;;;5068625;28;20218;-70
2023/06/20 01:19:20;;;;;;;4.17;0.70;;;18.60;24.00;;;;;;5073008;28;20187;-68
2023/06/20 01:21:59;;;;;;;1.47;0.70;;;19.20;25.80;;;;;;5070386;28;20311;-69
2023/06/20 01:25:08;;;;;;;0.57;0.50;;;19.30;23.80;;;;;;5066684;28;20208;-67
2023/06/20 01:27:57;;;;;;;1.73;0.60;;;19.60;22.50;;;;;;5032055;28;20263;-69
2023/06/20 01:30:32;;;;;;;3.57;0.70;;;19.70;22.50;;;;;;5031545;28;20189;-68
2023/06/20 01:33:03;;;;;;;1.73;0.60;;;20.00;21.80;;;;;;5047865;28;20293;-69
2023/06/20 01:35:33;;;;;;;0.50;0.50;;;20.10;20.50;;;;;;5052997;28;20279;-68
2023/06/20 01:38:07;;;;;;;0.50;0.50;;;20.10;18.90;;;;;;5059533;28;20178;-68
2023/06/20 01:40:37;;;;;;;1.00;0.50;;;20.20;18.90;;;;;;5077225;28;20173;-70
2023/06/20 01:43:07;;;;;;;0.90;0.47;;;19.50;18.60;;;;;;5082658;28;20227;-70
2023/06/20 01:45:38;;;;;;;0.63;0.30;;;19.60;16.00;;;;;;5073225;28;20406;-70
2023/06/20 01:48:08;;;;;;;0.40;0.40;;;19.70;16.10;;;;;;5073088;28;20276;-70
2023/06/20 01:50:38;;;;;;;0.70;0.40;;;19.80;16.80;;;;;;5073734;28;20199;-69
2023/06/20 01:53:08;;;;;;;0.70;0.53;;;19.70;17.60;;;;;;5073501;28;20209;-69
2023/06/20 01:55:37;;;;;;;0.40;0.37;;;20.20;16.30;;;;;;5073726;28;20222;-69
2023/06/20 01:58:06;;;;;;;2.20;0.60;;;20.50;15.80;;;;;;5073635;28;20377;-70
2023/06/20 02:00:34;;;;;;;0.43;0.40;;;20.20;14.30;;;;;;5072713;28;20183;-69
2023/06/20 02:03:04;;;;;;;1.17;0.60;;;19.80;13.70;;;;;;5072114;28;20199;-69
2023/06/20 02:05:33;;;;;;;1.13;0.57;;;19.50;13.00;;;;;;5069300;28;20226;-68
2023/06/20 02:08:02;;;;;;;0.93;0.83;;;19.50;14.10;;;;;;5063264;28;20192;-68
2023/06/20 02:10:30;;;;;;;0.70;0.50;;;19.20;12.90;;;;;;5073538;28;20255;-69
2023/06/20 02:12:58;;;;;;;0.73;0.50;;;19.10;13.10;;;;;;5053544;28;20242;-70
2023/06/20 02:15:28;;;;;;;0.40;0.40;;;19.20;11.90;;;;;;5070367;28;20631;-69
2023/06/20 02:17:56;;;;;;;0.87;0.40;;;18.90;12.20;;;;;;5072763;28;20191;-70
2023/06/20 02:20:24;;;;;;;4.33;0.50;;;18.90;12.50;;;;;;5073205;28;20186;-70
2023/06/20 02:22:55;;;;;;;0.47;0.47;;;19.30;13.60;;;;;;5072545;28;20176;-70
2023/06/20 02:25:33;;;;;;;0.53;0.40;;;19.30;12.00;;;;;;5072649;28;20733;-70
2023/06/20 02:28:03;;;;;;;0.97;0.60;;;19.60;14.20;;;;;;5072977;28;20188;-69
2023/06/20 02:30:32;;;;;;;0.83;0.53;;;19.60;12.00;;;;;;5072370;28;20188;-68
2023/06/20 02:33:02;;;;;;;2.20;0.47;;;19.30;11.80;;;;;;5073251;28;20175;-68
2023/06/20 02:35:33;;;;;;;2.43;0.53;;;19.40;12.60;;;;;;5072913;28;20191;-68
2023/06/20 02:38:03;;;;;;;1.53;0.50;;;19.30;11.80;;;;;;5072562;28;20532;-70
2023/06/20 02:40:31;;;;;;;1.77;0.60;;;19.50;12.80;;;;;;5072953;28;20255;-70
2023/06/20 02:42:58;;;;;;;0.70;0.40;;;19.60;11.20;;;;;;5073056;28;20195;-68
2023/06/20 02:45:26;;;;;;;0.63;0.50;;;19.80;12.30;;;;;;5070778;28;20635;-67
2023/06/20 02:47:56;;;;;;;2.33;0.40;;;19.80;11.20;;;;;;5072835;28;20172;-72
2023/06/20 02:50:44;;;;;;;1.63;0.57;;;20.00;12.50;;;;;;5072544;28;20190;-70
2023/06/20 02:53:42;;;;;;;0.77;0.40;;;19.70;11.80;;;;;;5068354;28;20192;-69
2023/06/20 02:56:15;;;;;;;0.67;0.50;;;19.80;11.50;;;;;;5067763;28;20192;-70
2023/06/20 02:58:46;;;;;;;4.40;0.40;;;19.90;13.60;;;;;;5072836;28;20249;-69
2023/06/20 03:01:24;;;;;;;1.33;0.43;;;20.00;10.10;;;;;;5072198;28;20615;-71
2023/06/20 03:03:54;;;;;;;0.50;0.50;;;19.80;11.90;;;;;;5072609;28;20174;-69
2023/06/20 03:06:27;;;;;;;1.83;0.50;;;19.80;10.90;;;;;;5072103;28;20203;-69
2023/06/20 03:08:57;;;;;;;1.37;0.40;;;20.40;12.00;;;;;;5072378;28;20187;-69
2023/06/20 03:11:25;;;;;;;0.87;0.33;;;21.00;11.10;;;;;;5072347;28;20183;-69
2023/06/20 03:13:52;;;;;;;1.00;0.33;;;21.10;11.70;;;;;;5071673;28;20195;-70
2023/06/20 03:16:20;;;;;;;4.27;0.83;;;20.80;8.90;;;;;;5072101;28;20194;-69
2023/06/20 03:18:48;;;;;;;0.63;0.30;;;20.20;10.20;;;;;;5072114;28;20244;-69
2023/06/20 03:21:16;;;;;;;1.33;0.60;;;19.90;8.80;;;;;;5071840;28;20274;-69
2023/06/20 03:23:44;;;;;;;2.03;0.63;;;20.10;10.60;;;;;;5071767;28;20186;-69
2023/06/20 03:26:11;;;;;;;0.53;0.53;;;20.20;9.60;;;;;;5071727;28;20228;-69
2023/06/20 03:28:39;;;;;;;0.90;0.33;;;20.10;10.20;;;;;;5072885;28;20208;-69
2023/06/20 03:31:07;;;;;;;0.63;0.60;;;20.00;9.40;;;;;;5071849;28;20183;-70
2023/06/20 03:33:35;;;;;;;1.30;0.50;;;19.90;10.50;;;;;;5071589;28;20182;-68
2023/06/20 03:36:03;;;;;;;1.53;0.40;;;20.40;10.60;;;;;;5071535;28;20581;-69
2023/06/20 03:38:30;;;;;;;1.03;0.47;;;20.20;8.50;;;;;;5071677;28;20297;-68
2023/06/20 03:40:59;;;;;;;1.13;0.50;;;20.20;8.20;;;;;;5071311;28;20706;-68
2023/06/20 03:43:27;;;;;;;0.90;0.40;;;20.00;8.70;;;;;;5071715;28;20644;-69
2023/06/20 03:45:55;;;;;;;0.70;0.40;;;20.10;9.10;;;;;;5071425;28;20268;-68
2023/06/20 03:48:23;;;;;;;0.73;0.60;;;20.10;8.90;;;;;;5071674;28;20181;-68
2023/06/20 03:50:50;;;;;;;0.77;0.40;;;20.20;8.40;;;;;;5071312;28;20654;-68
2023/06/20 03:53:18;;;;;;;0.97;0.40;;;20.40;7.90;;;;;;5071610;28;20211;-69
2023/06/20 03:55:46;;;;;;;4.13;0.50;;;20.30;9.00;;;;;;5071805;28;20221;-69
2023/06/20 03:58:14;;;;;;;0.67;0.50;;;20.20;8.00;;;;;;5071538;28;20225;-70
2023/06/20 04:00:42;;;;;;;1.53;0.40;;;20.10;8.10;;;;;;5071184;28;20257;-69
2023/06/20 04:03:10;;;;;;;1.13;0.50;;;19.60;8.40;;;;;;5071711;28;20180;-69
2023/06/20 04:05:37;;;;;;;3.20;0.60;;;19.60;8.20;;;;;;5070685;28;20211;-67
2023/06/20 04:08:05;;;;;;;1.53;0.87;;;19.80;8.50;;;;;;5071372;28;20199;-68
2023/06/20 04:10:33;;;;;;;2.07;0.60;;;19.60;9.20;;;;;;5071318;28;20186;-68
2023/06/20 04:13:01;;;;;;;1.77;0.50;;;19.10;8.60;;;;;;5071242;28;20641;-68
2023/06/20 04:15:29;;;;;;;0.67;0.50;;;19.10;9.10;;;;;;5070887;28;20246;-68
2023/06/20 04:18:00;;;;;;;2.70;0.70;;;19.50;10.00;;;;;;5071054;28;20206;-68
2023/06/20 04:20:28;;;;;;;0.30;0.30;;;19.50;8.60;;;;;;5071133;28;20273;-70
2023/06/20 04:22:56;;;;;;;1.63;0.40;;;19.60;9.50;;;;;;5071259;28;20233;-68
2023/06/20 04:25:23;;;;;;;0.73;0.40;;;19.70;9.40;;;;;;5071374;28;20684;-69
2023/06/20 04:27:53;;;;;;;1.37;0.40;;;19.70;9.70;;;;;;5070885;28;20183;-68
2023/06/20 04:30:22;;;;;;;1.27;0.43;;;19.70;9.70;;;;;;5071097;28;20191;-68
2023/06/20 04:32:53;;;;;;;0.47;0.40;;;19.50;8.90;;;;;;5071072;28;20176;-68
2023/06/20 04:35:23;;;;;;;0.90;0.43;;;19.30;9.20;;;;;;5071432;28;20183;-67
2023/06/20 04:37:51;;;;;;;1.83;0.40;;;19.00;9.00;;;;;;5072229;28;20186;-68
2023/06/20 04:40:19;;;;;;;0.60;0.47;;;19.00;9.20;;;;;;5072694;28;20195;-69
2023/06/20 04:42:47;;;;;;;2.83;0.57;;;19.00;9.30;;;;;;5072653;28;20220;-69
2023/06/20 04:45:15;;;;;;;0.63;0.50;;;18.80;9.00;;;;;;5073112;28;20207;-70
2023/06/20 04:47:42;;;;;;;2.30;0.40;;;18.90;9.80;;;;;;5073213;28;20179;-68
2023/06/20 04:50:10;;;;;;;0.97;0.50;;;18.90;9.90;;;;;;5072374;28;20183;-68
2023/06/20 04:52:38;;;;;;;0.73;0.40;;;19.20;9.50;;;;;;5072836;28;20171;-70
2023/06/20 04:55:06;;;;;;;1.37;0.77;;;18.90;8.70;;;;;;5072989;28;20183;-68
2023/06/20 04:57:34;;;;;;;1.37;0.67;;;19.00;9.50;;;;;;5072628;28;20180;-68
2023/06/20 05:00:14;;;;;;;2.83;0.57;;;19.20;10.20;;;;;;5072274;28;20180;-68
2023/06/20 05:02:42;;;;;;;0.63;0.43;;;19.10;9.70;;;;;;5072573;28;20172;-68
2023/06/20 05:05:12;;;;;;;0.77;0.60;;;19.00;10.10;;;;;;5071515;28;20211;-68
2023/06/20 05:07:44;;;;;;;6.00;3.93;;;19.20;9.30;;;;;;5047505;28;20178;-69
2023/06/20 05:10:12;;;;;;;0.70;0.70;;;18.80;7.90;;;;;;5070020;28;20714;-69
2023/06/20 05:12:40;;;;;;;2.27;0.50;;;18.70;8.10;;;;;;5070894;28;20177;-70
2023/06/20 05:15:08;;;;;;;1.27;0.87;;;18.60;8.20;;;;;;5069464;28;20231;-68
2023/06/20 05:17:36;;;;;;;3.23;0.60;;;18.40;8.40;;;;;;5071590;28;20179;-71
2023/06/20 05:20:06;;;;;;;1.43;0.60;;;18.10;8.10;;;;;;5074369;28;20613;-69
2023/06/20 05:22:34;;;;;;;1.00;0.60;;;18.00;8.30;;;;;;5073546;28;20198;-69
2023/06/20 05:25:01;;;;;;;0.50;0.50;;;18.00;8.90;;;;;;5074069;28;20301;-68
2023/06/20 05:27:29;;;;;;;0.67;0.50;;;18.00;9.30;;;;;;5074334;28;20183;-72
2023/06/20 05:29:57;;;;;;;5.90;0.77;;;17.60;9.70;;;;;;5073178;28;20235;-70
2023/06/20 05:32:25;;;;;;;1.23;0.77;;;17.40;10.40;;;;;;5073990;28;20687;-71
2023/06/20 05:34:53;;;;;;;1.73;0.97;;;17.20;10.50;;;;;;5077989;28;20186;-70
2023/06/20 05:37:21;;;;;;;1.60;0.70;;;17.10;10.40;;;;;;5079080;28;20263;-70
2023/06/20 05:39:49;;;;;;;0.50;0.50;;;16.90;11.40;;;;;;5074138;28;20172;-70
2023/06/20 05:42:17;;;;;;;0.60;0.50;;;16.60;11.90;;;;;;5074125;28;20198;-70
2023/06/20 05:44:45;;;;;;;0.57;0.50;;;16.30;12.30;;;;;;5073277;28;20206;-71
2023/06/20 05:47:17;;;;;;;1.63;0.40;;;16.10;12.50;;;;;;5074054;28;20172;-70
2023/06/20 05:49:45;;;;;;;1.83;0.60;;;16.00;13.00;;;;;;5074052;28;20171;-71
2023/06/20 05:52:14;;;;;;;0.70;0.57;;;15.90;13.20;;;;;;5073475;28;20645;-72
2023/06/20 05:54:43;;;;;;;0.50;0.50;;;15.80;13.20;;;;;;5073714;28;20182;-70
2023/06/20 05:57:11;;;;;;;4.07;1.40;;;15.70;13.20;;;;;;5073961;28;20168;-68
2023/06/20 05:59:39;;;;;;;2.83;0.70;;;15.50;13.10;;;;;;5073357;28;20574;-68
2023/06/20 06:02:07;;;;;;;2.73;0.70;;;15.40;13.90;;;;;;5073813;28;20182;-70
2023/06/20 06:04:35;;;;;;;1.60;1.20;;;15.30;13.30;;;;;;5073722;28;20226;-69
2023/06/20 06:07:07;;;;;;;2.50;0.83;;;15.20;13.40;;;;;;5074881;28;20236;-69
2023/06/20 06:09:35;;;;;;;1.00;0.80;;;15.20;12.40;;;;;;5075076;28;20172;-69
2023/06/20 06:12:03;;;;;;;2.20;0.60;;;15.20;12.60;;;;;;5075172;28;20183;-70
2023/06/20 06:14:30;;;;;;;0.50;0.50;;;15.20;12.10;;;;;;5075130;28;20280;-70
2023/06/20 06:16:58;;;;;;;2.17;0.50;;;15.00;12.70;;;;;;5074846;28;20262;-69
2023/06/20 06:19:26;;;;;;;1.67;0.70;;;14.90;13.80;;;;;;5075024;28;20186;-68
2023/06/20 06:21:53;;;;;;;2.33;0.63;;;14.80;13.20;;;;;;5074783;28;20227;-69
2023/06/20 06:24:22;;;;;;;2.20;0.60;;;14.80;13.70;;;;;;5074872;28;20179;-70
2023/06/20 06:26:50;;;;;;;2.27;0.87;;;14.70;14.30;;;;;;5074863;28;20204;-69
2023/06/20 06:29:18;;;;;;;1.80;0.70;;;14.50;14.10;;;;;;5074545;28;20175;-69
2023/06/20 06:31:46;;;;;;;1.20;0.80;;;14.60;14.10;;;;;;5074707;28;20186;-69
2023/06/20 06:34:18;;;;;;;0.77;0.50;;;14.40;15.00;;;;;;5074709;28;20250;-70
2023/06/20 06:36:48;;;;;;;1.30;0.63;;;14.30;15.10;;;;;;5074580;28;20187;-68
2023/06/20 06:39:20;;;;;;;2.00;0.40;;;14.30;15.40;;;;;;5074668;28;20266;-69
2023/06/20 06:41:49;;;;;;;1.63;0.60;;;14.10;15.60;;;;;;5074739;28;20224;-69
2023/06/20 06:44:18;;;;;;;0.73;0.63;;;14.00;16.10;;;;;;5074677;28;20217;-71
2023/06/20 06:46:46;;;;;;;0.50;0.50;;;13.80;16.50;;;;;;5074376;28;20204;-71
2023/06/20 06:49:14;;;;;;;2.00;0.60;;;13.50;17.70;;;;;;5074251;28;20174;-71
2023/06/20 06:51:42;;;;;;;1.40;0.70;;;13.40;19.00;;;;;;5074429;28;20185;-69
2023/06/20 06:54:10;;;;;;;1.43;0.60;;;13.20;20.10;;;;;;5074388;28;20182;-70
2023/06/20 06:56:37;;;;;;;1.70;0.70;;;13.10;21.30;;;;;;5073905;28;20549;-70
2023/06/20 06:59:05;;;;;;;2.50;0.70;;;13.00;22.50;;;;;;5055336;28;20655;-71
2023/06/20 07:01:33;;;;;;;1.27;0.80;;;12.90;24.60;;;;;;5072075;28;20193;-71
2023/06/20 07:04:01;;;;;;;1.87;1.03;;;12.80;25.90;;;;;;5072242;28;20271;-71
2023/06/20 07:06:29;;;;;;;4.07;1.20;;;12.70;27.50;;;;;;5071636;28;20330;-71
2023/06/20 07:08:57;;;;;;;1.70;1.10;;;12.60;27.90;;;;;;5071926;28;20190;-71
2023/06/20 07:11:25;;;;;;;1.90;1.20;;;12.40;28.90;;;;;;5070636;28;20644;-70
2023/06/20 07:13:52;;;;;;;1.97;1.13;;;12.30;30.30;;;;;;5068271;28;20198;-72
2023/06/20 07:16:20;;;;;;;7.17;1.90;;;12.10;32.10;;;;;;5071923;28;20280;-69
2023/06/20 07:18:48;;;;;;;5.27;2.40;;;11.90;34.00;;;;;;5071721;28;20189;-73
2023/06/20 07:21:16;;;;;;;3.73;1.60;;;11.80;36.10;;;;;;5071338;28;20185;-70
2023/06/20 07:23:44;;;;;;;5.37;1.70;;;11.70;38.50;;;;;;5071686;28;20174;-71
2023/06/20 07:26:12;;;;;;;7.07;1.80;;;11.50;41.90;;;;;;5071827;28;20216;-72
2023/06/20 07:28:40;;;;;;;7.50;2.40;;;11.30;45.00;;;;;;5071144;28;20261;-70
2023/06/20 07:31:08;;;;;;;7.33;1.90;;;11.20;48.30;;;;;;5071903;28;20348;-71
2023/06/20 07:33:36;;;;;;;2.93;1.80;;;11.10;50.30;;;;;;5071530;28;20184;-71
2023/06/20 07:36:07;;;;;;;3.73;2.10;;;11.00;56.40;;;;;;5071185;28;20185;-71
2023/06/20 07:38:35;;;;;;;3.60;2.27;;;10.90;62.20;;;;;;5071600;28;20175;-70
2023/06/20 07:41:02;;;;;;;3.60;1.90;;;10.80;70.80;;;;;;5071222;28;20539;-70
2023/06/20 07:43:30;;;;;;;3.20;1.80;;;10.60;77.70;;;;;;5070990;28;20178;-70
2023/06/20 07:45:59;;;;;;;7.03;2.20;;;10.50;87.90;;;;;;5071431;28;20201;-71
2023/06/20 07:48:29;;;;;;;6.20;2.20;;;10.40;95.10;;;;;;5071082;28;20655;-69
2023/06/20 07:50:58;;;;;;;4.23;2.00;;;10.30;99.90;;;;;;5070756;28;20638;-70
2023/06/20 07:53:25;;;;;;;3.13;1.90;;;10.20;99.90;;;;;;5071577;28;20181;-67
2023/06/20 07:55:59;;;;;;;4.43;1.60;;;10.10;99.90;;;;;;5073478;28;20530;-70
2023/06/20 07:58:27;;;;;;;2.90;1.40;;;9.90;99.90;;;;;;5071242;28;20250;-70
2023/06/20 08:00:56;;;;;;;2.70;1.80;;;9.90;99.90;;;;;;5073250;28;20662;-70
2023/06/20 08:03:25;;;;;;;4.70;1.60;;;9.70;99.90;;;;;;5072265;28;20256;-70
2023/06/20 08:05:53;;;;;;;3.93;1.73;;;9.60;99.90;;;;;;5071985;28;20691;-69
2023/06/20 08:08:20;;;;;;;4.37;1.97;;;9.60;99.90;;;;;;5072204;28;20169;-69
2023/06/20 08:10:48;;;;;;;3.53;1.53;;;9.50;99.90;;;;;;5072283;28;20183;-69
2023/06/20 08:13:16;;;;;;;4.97;1.80;;;9.40;99.90;;;;;;5072766;28;20174;-70
2023/06/20 08:15:44;;;;;;;3.10;1.50;;;9.40;99.90;;;;;;5070844;28;20269;-69
2023/06/20 08:18:11;;;;;;;2.40;1.83;;;9.30;99.90;;;;;;5073580;28;20213;-69
2023/06/20 08:20:41;;;;;;;6.57;1.70;;;9.20;99.90;;;;;;5072628;28;20172;-70
2023/06/20 08:23:09;;;;;;;1.83;1.50;;;9.20;99.90;;;;;;5071209;28;20176;-70
2023/06/20 08:25:37;;;;;;;6.07;2.87;;;9.10;99.90;;;;;;5072957;28;20264;-69
2023/06/20 08:28:05;;;;;;;6.00;2.37;;;9.10;99.90;;;;;;5072546;28;20198;-70
2023/06/20 08:30:32;;;;;;;3.10;2.10;;;8.90;99.90;;;;;;5059404;28;20214;-72
2023/06/20 08:33:01;;;;;;;7.00;2.87;;;8.90;99.90;;;;;;5065498;28;20193;-71
2023/06/20 08:35:29;;;;;;;6.07;2.67;;;8.80;99.90;;;;;;5071279;28;20747;-70
2023/06/20 08:37:57;;;;;;;5.40;2.60;;;8.90;99.90;;;;;;5071605;28;20195;-73
2023/06/20 08:40:26;;;;;;;6.97;3.00;;;8.80;99.90;;;;;;5070881;28;20215;-71
2023/06/20 08:42:56;;;;;;;4.67;2.80;;;8.70;99.90;;;;;;5071217;28;20171;-71
2023/06/20 08:45:24;;;;;;;10.37;4.00;;;8.50;99.90;;;;;;5071157;28;20212;-71
2023/06/20 08:47:52;;;;;;;8.73;4.13;;;8.50;99.90;;;;;;5070297;28;20178;-70
2023/06/20 08:50:20;;;;;;;9.97;6.03;;;8.40;99.90;;;;;;5070245;28;20231;-68
2023/06/20 08:52:49;;;;;;;14.17;6.57;;;8.40;99.90;;;;;;5074012;28;20179;-70
2023/06/20 08:55:17;;;;;;;8.37;6.77;;;8.40;99.90;;;;;;5074127;28;20190;-70
2023/06/20 08:57:48;;;;;;;13.03;6.67;;;8.40;99.90;;;;;;5074274;28;20173;-70
2023/06/20 09:00:23;;;;;;;14.03;6.73;;;8.30;99.90;;;;;;5068263;28;20546;-69
2023/06/20 09:02:55;;;;;;;9.43;5.77;;;8.10;99.90;;;;;;5073619;28;20649;-70
2023/06/20 09:05:22;;;;;;;12.80;7.23;;;8.10;99.90;;;;;;5074451;28;20208;-71
2023/06/20 09:07:52;;;;;;;11.50;6.33;;;8.00;99.90;;;;;;5074415;28;20241;-70
2023/06/20 09:10:24;;;;;;;10.57;6.40;;;8.00;99.90;;;;;;5073312;28;20889;-72
2023/06/20 09:12:56;;;;;;;11.17;6.40;;;7.90;99.90;;;;;;5074423;28;20176;-70
2023/06/20 09:15:26;;;;;;;14.53;9.03;;;7.90;99.90;;;;;;5073211;28;20330;-70
2023/06/20 09:18:01;;;;;;;20.17;7.27;;;8.00;99.90;;;;;;5075639;28;20176;-69
2023/06/20 09:20:31;;;;;;;12.40;7.33;;;7.80;99.90;;;;;;5075483;28;20178;-71
2023/06/20 09:23:00;;;;;;;15.47;7.77;;;7.80;99.90;;;;;;5075614;28;20195;-70
2023/06/20 09:25:30;;;;;;;11.20;7.20;;;7.70;99.90;;;;;;5075593;28;20286;-70
2023/06/20 09:27:58;;;;;;;15.73;7.87;;;7.60;99.90;;;;;;5075118;28;20282;-69
2023/06/20 09:30:33;;;;;;;20.43;8.60;;;7.60;99.90;;;;;;5074813;28;20192;-70
2023/06/20 09:33:04;;;;;;;13.00;8.43;;;7.60;99.90;;;;;;5075389;28;20176;-69
2023/06/20 09:35:32;;;;;;;12.10;6.13;;;7.50;99.90;;;;;;5075424;28;20777;-70
2023/06/20 09:38:06;;;;;;;10.50;6.00;;;7.50;99.90;;;;;;5075089;28;20214;-70
2023/06/20 09:40:44;;;;;;;11.00;6.50;;;7.50;99.90;;;;;;5075457;28;20271;-70
2023/06/20 09:43:12;;;;;;;12.13;6.33;;;7.50;99.90;;;;;;5075309;28;20176;-71
2023/06/20 09:45:39;;;;;;;10.67;6.13;;;7.50;99.90;;;;;;5074647;28;20234;-69
2023/06/20 09:48:09;;;;;;;14.90;6.67;;;7.40;99.90;;;;;;5075084;28;20183;-70
2023/06/20 09:50:39;;;;;;;8.73;6.23;;;7.30;99.90;;;;;;5075320;28;20241;-69
2023/06/20 09:53:38;;;;;;;13.03;6.07;;;7.30;99.90;;;;;;5056746;28;20184;-70
2023/06/20 09:56:08;;;;;;;10.50;5.53;;;7.20;99.90;;;;;;5075207;28;20179;-71
2023/06/20 09:58:36;;;;;;;7.97;5.47;;;7.20;99.90;;;;;;5074898;28;20188;-69
2023/06/20 10:01:05;;;;;;;8.60;5.40;;;7.20;99.90;;;;;;5074786;28;20689;-69
2023/06/20 10:03:34;;;;;;;11.43;5.67;;;7.10;99.90;;;;;;5073730;28;20192;-70
2023/06/20 10:06:03;;;;;;;11.27;6.03;;;7.10;99.90;;;;;;5074946;28;20206;-70
2023/06/20 10:08:32;;;;;;;10.73;6.53;;;7.20;99.90;;;;;;5074336;28;20182;-70
2023/06/20 10:11:00;;;;;;;11.73;6.37;;;7.10;99.90;;;;;;5074838;28;20190;-68
2023/06/20 10:13:29;;;;;;;16.10;8.57;;;7.10;99.90;;;;;;5074341;28;20178;-71
2023/06/20 10:15:59;;;;;;;17.37;8.73;;;7.10;99.90;;;;;;5074569;28;20225;-70
2023/06/20 10:18:32;;;;;;;18.57;8.70;;;7.10;99.90;;;;;;5074199;28;20211;-70
2023/06/20 10:21:01;;;;;;;11.43;7.47;;;7.00;99.90;;;;;;5074821;28;20660;-70
2023/06/20 10:23:35;;;;;;;13.50;7.53;;;7.00;99.90;;;;;;5074255;28;20183;-69
2023/06/20 10:26:05;;;;;;;20.33;7.10;;;7.00;99.90;;;;;;5074682;28;20235;-69
2023/06/20 10:28:33;;;;;;;15.00;7.10;;;7.00;99.90;;;;;;5074044;28;20273;-70
2023/06/20 10:31:02;;;;;;;13.77;7.73;;;6.90;99.90;;;;;;5074082;28;20191;-70
2023/06/20 10:33:40;;;;;;;13.13;7.77;;;6.90;99.90;;;;;;5074211;28;20337;-69
2023/06/20 10:36:09;;;;;;;13.63;7.20;;;6.80;99.90;;;;;;5073906;28;20198;-70
2023/06/20 10:39:00;;;;;;;13.27;7.40;;;6.70;99.90;;;;;;5074138;28;20177;-69
2023/06/20 10:41:29;;;;;;;12.63;7.07;;;6.80;99.90;;;;;;5071080;28;20660;-70
2023/06/20 10:44:05;;;;;;;14.43;8.10;;;6.70;99.90;;;;;;5074221;28;20203;-70
2023/06/20 10:46:42;;;;;;;16.47;8.13;;;6.70;99.90;;;;;;5074405;28;20225;-70
2023/06/20 10:49:11;;;;;;;11.10;8.00;;;6.70;99.90;;;;;;5061133;28;20175;-69
2023/06/20 10:51:57;;;;;;;11.60;8.17;;;6.60;99.90;;;;;;5073799;28;20229;-70
2023/06/20 10:54:34;;;;;;;12.47;7.40;;;6.60;99.90;;;;;;5072793;28;20173;-70
2023/06/20 10:57:02;;;;;;;11.03;7.13;;;6.60;99.90;;;;;;5073197;28;20186;-71
2023/06/20 10:59:29;;;;;;;10.67;7.17;;;6.60;99.90;;;;;;5073174;28;20181;-70
2023/06/20 11:01:58;;;;;;;13.83;7.10;;;6.60;99.90;;;;;;5073619;28;20190;-71
2023/06/20 11:04:26;;;;;;;11.00;7.27;;;6.50;99.90;;;;;;5073362;28;20183;-70
2023/06/20 11:06:54;;;;;;;16.70;7.90;;;6.50;99.90;;;;;;5073002;28;20187;-70
2023/06/20 11:09:23;;;;;;;10.57;6.80;;;6.40;99.90;;;;;;5073316;28;20218;-69
2023/06/20 11:11:51;;;;;;;12.43;7.37;;;6.40;99.90;;;;;;5073575;28;20182;-70
2023/06/20 11:14:25;;;;;;;14.60;7.30;;;6.40;99.90;;;;;;5073264;28;20696;-71
2023/06/20 11:16:56;;;;;;;10.87;6.67;;;6.30;99.90;;;;;;5072513;28;20183;-69
2023/06/20 11:19:27;;;;;;;9.07;6.10;;;6.30;99.90;;;;;;5073179;28;20179;-70
2023/06/20 11:21:55;;;;;;;10.40;6.50;;;6.30;99.90;;;;;;5072424;28;20187;-69
2023/06/20 11:24:23;;;;;;;10.83;6.73;;;6.30;99.90;;;;;;5073520;28;20606;-71
2023/06/20 11:26:51;;;;;;;12.30;6.37;;;6.20;99.90;;;;;;5072576;28;20187;-71
2023/06/20 11:29:19;;;;;;;9.83;6.20;;;6.20;99.90;;;;;;5073573;28;20187;-70
2023/06/20 11:31:46;;;;;;;11.90;6.57;;;6.20;99.90;;;;;;5072786;28;20188;-70
2023/06/20 11:34:15;;;;;;;12.80;6.50;;;6.10;99.90;;;;;;5073112;28;20647;-70
2023/06/20 11:36:42;;;;;;;11.43;6.23;;;6.10;99.90;;;;;;5073108;28;20183;-69
2023/06/20 11:39:14;;;;;;;12.07;5.90;;;6.10;99.90;;;;;;5072552;28;20187;-69
2023/06/20 11:41:42;;;;;;;8.33;5.20;;;6.00;99.90;;;;;;5072048;28;20204;-70
2023/06/20 11:44:24;;;;;;;9.47;5.17;;;5.90;99.90;;;;;;5072529;28;20191;-70
2023/06/20 11:46:51;;;;;;;10.63;5.87;;;5.90;99.90;;;;;;5072806;28;20271;-71
2023/06/20 11:49:40;;;;;;;12.30;5.33;;;5.90;99.90;;;;;;5072298;28;20186;-69
2023/06/20 11:52:12;;;;;;;7.70;5.33;;;5.80;99.90;;;;;;5072777;28;20164;-72
2023/06/20 11:54:52;;;;;;;11.53;5.33;;;5.80;99.90;;;;;;5072532;28;20190;-70
2023/06/20 11:57:31;;;;;;;8.30;5.17;;;5.70;99.90;;;;;;5072753;28;20543;-69
2023/06/20 12:00:05;;;;;;;8.33;5.37;;;5.70;99.90;;;;;;5072283;28;20549;-69
2023/06/20 12:02:39;;;;;;;9.03;4.97;;;5.70;99.90;;;;;;5072692;28;20194;-70
2023/06/20 12:05:08;;;;;;;6.03;4.50;;;5.60;99.90;;;;;;5072242;28;20223;-70
2023/06/20 12:07:53;;;;;;;7.77;4.70;;;5.50;99.90;;;;;;5072292;28;20187;-70
2023/06/20 12:10:24;;;;;;;9.97;5.43;;;5.50;99.90;;;;;;5071285;28;20317;-70
2023/06/20 12:12:51;;;;;;;10.33;5.57;;;5.50;99.90;;;;;;5072139;28;20644;-71
2023/06/20 12:15:19;;;;;;;6.93;4.53;;;5.40;99.90;;;;;;5072278;28;20326;-70
2023/06/20 12:17:47;;;;;;;9.60;5.00;;;5.40;99.90;;;;;;5070875;28;20466;-71
2023/06/20 12:20:15;;;;;;;7.20;4.60;;;5.40;99.90;;;;;;5071042;28;20262;-68
2023/06/20 12:22:42;;;;;;;7.87;5.10;;;5.40;99.90;;;;;;5072693;28;20190;-71
2023/06/20 12:25:10;;;;;;;9.37;4.60;;;5.30;99.90;;;;;;5072227;28;20225;-71
2023/06/20 12:27:39;;;;;;;7.57;4.17;;;5.30;99.90;;;;;;5071410;28;20202;-70
2023/06/20 12:30:09;;;;;;;6.90;4.23;;;5.30;99.90;;;;;;5072190;28;20183;-70
2023/06/20 12:32:37;;;;;;;7.80;4.23;;;5.20;99.90;;;;;;5071846;28;20183;-70
2023/06/20 12:35:05;;;;;;;6.83;4.13;;;5.20;99.90;;;;;;5072059;28;20196;-70
2023/06/20 12:37:33;;;;;;;5.97;3.83;;;5.20;99.90;;;;;;5072077;28;20176;-70
2023/06/20 12:40:00;;;;;;;6.17;3.80;;;5.20;99.90;;;;;;5071397;28;20187;-70
2023/06/20 12:42:28;;;;;;;7.67;3.87;;;5.20;99.90;;;;;;5071648;28;20179;-70
2023/06/20 12:44:56;;;;;;;8.53;4.03;;;5.10;99.90;;;;;;5071744;28;20733;-70
2023/06/20 12:47:25;;;;;;;7.27;3.73;;;5.10;99.90;;;;;;5071862;28;20184;-70
2023/06/20 12:49:52;;;;;;;6.77;3.77;;;5.10;99.90;;;;;;5070580;28;20295;-69
2023/06/20 12:52:20;;;;;;;5.97;3.30;;;5.10;99.90;;;;;;5072173;28;20183;-69
2023/06/20 12:54:48;;;;;;;7.40;3.33;;;5.10;99.90;;;;;;5072371;28;20211;-69
2023/06/20 12:57:16;;;;;;;9.00;3.37;;;5.10;99.90;;;;;;5072190;28;20663;-69
2023/06/20 12:59:43;;;;;;;5.90;3.10;;;5.10;99.90;;;;;;5072312;28;20183;-70
2023/06/20 13:02:11;;;;;;;6.00;3.00;;;5.10;99.90;;;;;;5072402;28;20177;-69
2023/06/20 13:04:39;;;;;;;4.43;3.00;;;5.10;99.90;;;;;;5070940;28;20208;-69
2023/06/20 13:07:07;;;;;;;4.90;3.03;;;5.10;99.90;;;;;;5071157;28;20580;-69